sensor_id;sensor_type;location;lat;lon;timestamp;pressure;altitude;pressure_sealevel;temperature;humidity
76547;BME280;65390;53.014;8.886;2023-02-28T00:01:24;103094.00;;;4.36;86.35
76547;BME280;65390;53.014;8.886;2023-02-28T00:03:49;103058.66;;;4.21;85.58
76547;BME280;65390;53.014;8.886;2023-02-28T00:06:15;103063.13;;;4.13;85.12
76547;BME280;65390;53.014;8.886;2023-02-28T00:08:40;103059.53;;;4.23;84.84
76547;BME280;65390;53.014;8.886;2023-02-28T00:11:08;103068.34;;;4.36;84.35
76547;BME280;65390;53.014;8.886;2023-02-28T00:13:36;103047.19;;;4.18;84.57
76547;BME280;65390;53.014;8.886;2023-02-28T00:16:05;103077.19;;;4.37;84.21
76547;BME280;65390;53.014;8.886;2023-02-28T00:18:31;103066.59;;;4.26;84.35
76547;BME280;65390;53.014;8.886;2023-02-28T00:20:57;103063.91;;;4.31;84.19
76547;BME280;65390;53.014;8.886;2023-02-28T00:23:23;103044.53;;;4.15;84.30
76547;BME280;65390;53.014;8.886;2023-02-28T00:25:48;103071.06;;;4.16;84.89
76547;BME280;65390;53.014;8.886;2023-02-28T00:28:14;103071.03;;;4.21;85.01
76547;BME280;65390;53.014;8.886;2023-02-28T00:30:39;103062.22;;;4.14;84.71
76547;BME280;65390;53.014;8.886;2023-02-28T00:33:05;103082.56;;;4.11;85.19
76547;BME280;65390;53.014;8.886;2023-02-28T00:35:30;103069.31;;;4.08;84.88
76547;BME280;65390;53.014;8.886;2023-02-28T00:37:55;103077.25;;;4.12;84.31
76547;BME280;65390;53.014;8.886;2023-02-28T00:40:21;103067.56;;;3.99;84.51
76547;BME280;65390;53.014;8.886;2023-02-28T00:42:46;103064.94;;;3.87;84.79
76547;BME280;65390;53.014;8.886;2023-02-28T00:45:12;103057.88;;;3.74;85.50
76547;BME280;65390;53.014;8.886;2023-02-28T00:47:37;103064.97;;;3.52;85.76
76547;BME280;65390;53.014;8.886;2023-02-28T00:50:03;103056.13;;;3.53;85.85
76547;BME280;65390;53.014;8.886;2023-02-28T00:52:29;103064.09;;;3.56;85.96
76547;BME280;65390;53.014;8.886;2023-02-28T00:54:55;103068.50;;;3.55;86.36
76547;BME280;65390;53.014;8.886;2023-02-28T00:57:20;103077.34;;;3.31;87.06
76547;BME280;65390;53.014;8.886;2023-02-28T00:59:46;103084.41;;;3.13;87.79
76547;BME280;65390;53.014;8.886;2023-02-28T01:02:11;103055.19;;;2.82;88.40
76547;BME280;65390;53.014;8.886;2023-02-28T01:04:37;103081.75;;;3.16;88.96
76547;BME280;65390;53.014;8.886;2023-02-28T01:07:02;103093.25;;;3.31;88.71
76547;BME280;65390;53.014;8.886;2023-02-28T01:09:28;103062.34;;;3.30;87.85
76547;BME280;65390;53.014;8.886;2023-02-28T01:11:53;103063.19;;;3.20;87.77
76547;BME280;65390;53.014;8.886;2023-02-28T01:14:19;103087.06;;;3.29;87.51
76547;BME280;65390;53.014;8.886;2023-02-28T01:16:45;103057.91;;;3.11;86.80
76547;BME280;65390;53.014;8.886;2023-02-28T01:19:10;103070.28;;;3.26;86.73
76547;BME280;65390;53.014;8.886;2023-02-28T01:21:36;103100.31;;;3.52;86.79
76547;BME280;65390;53.014;8.886;2023-02-28T01:24:02;103061.44;;;3.22;86.27
76547;BME280;65390;53.014;8.886;2023-02-28T01:26:28;103083.53;;;3.40;86.00
76547;BME280;65390;53.014;8.886;2023-02-28T01:28:54;103091.47;;;3.38;85.79
76547;BME280;65390;53.014;8.886;2023-02-28T01:31:20;103089.72;;;3.32;85.53
76547;BME280;65390;53.014;8.886;2023-02-28T01:33:46;103086.19;;;3.30;85.81
76547;BME280;65390;53.014;8.886;2023-02-28T01:36:15;103107.38;;;3.55;85.49
76547;BME280;65390;53.014;8.886;2023-02-28T01:38:41;103075.59;;;3.46;85.15
76547;BME280;65390;53.014;8.886;2023-02-28T01:41:07;103102.09;;;3.56;85.28
76547;BME280;65390;53.014;8.886;2023-02-28T01:46:20;103074.72;;;3.24;84.96
76547;BME280;65390;53.014;8.886;2023-02-28T01:48:49;103087.97;;;3.27;85.13
76547;BME280;65390;53.014;8.886;2023-02-28T01:51:44;103080.00;;;3.27;85.22
76547;BME280;65390;53.014;8.886;2023-02-28T01:54:15;103087.94;;;3.31;84.87
76547;BME280;65390;53.014;8.886;2023-02-28T01:56:49;103101.19;;;3.41;85.19
76547;BME280;65390;53.014;8.886;2023-02-28T02:02:14;103095.00;;;3.37;84.61
76547;BME280;65390;53.014;8.886;2023-02-28T02:04:46;103089.69;;;3.20;83.97
76547;BME280;65390;53.014;8.886;2023-02-28T02:07:15;103074.69;;;3.09;84.61
76547;BME280;65390;53.014;8.886;2023-02-28T02:09:41;103076.41;;;3.05;84.45
76547;BME280;65390;53.014;8.886;2023-02-28T02:12:21;103075.53;;;2.98;84.67
76547;BME280;65390;53.014;8.886;2023-02-28T02:15:01;103072.00;;;2.95;84.65
76547;BME280;65390;53.014;8.886;2023-02-28T02:17:43;103084.38;;;2.91;85.27
76547;BME280;65390;53.014;8.886;2023-02-28T02:20:38;103109.13;;;3.09;84.84
76547;BME280;65390;53.014;8.886;2023-02-28T02:23:33;103110.91;;;3.11;84.81
76547;BME280;65390;53.014;8.886;2023-02-28T02:37:14;103064.91;;;2.76;84.90
76547;BME280;65390;53.014;8.886;2023-02-28T02:40:10;103076.38;;;2.81;84.40
76547;BME280;65390;53.014;8.886;2023-02-28T02:42:45;103082.50;;;2.57;84.85
76547;BME280;65390;53.014;8.886;2023-02-28T02:45:33;103081.47;;;2.30;85.21
76547;BME280;65390;53.014;8.886;2023-02-28T02:48:02;103069.00;;;1.99;85.78
76547;BME280;65390;53.014;8.886;2023-02-28T02:50:43;103071.47;;;1.76;86.41
76547;BME280;65390;53.014;8.886;2023-02-28T02:53:11;103112.13;;;1.95;86.39
76547;BME280;65390;53.014;8.886;2023-02-28T02:55:40;103099.63;;;1.68;86.81
76547;BME280;65390;53.014;8.886;2023-02-28T02:58:12;103103.94;;;1.61;87.14
76547;BME280;65390;53.014;8.886;2023-02-28T03:00:41;103083.53;;;1.39;87.33
76547;BME280;65390;53.014;8.886;2023-02-28T03:03:09;103073.75;;;1.27;88.10
76547;BME280;65390;53.014;8.886;2023-02-28T03:05:42;103110.81;;;1.36;87.95
76547;BME280;65390;53.014;8.886;2023-02-28T03:08:09;103068.41;;;1.21;88.50
76547;BME280;65390;53.014;8.886;2023-02-28T03:10:38;103095.88;;;1.43;88.57
76547;BME280;65390;53.014;8.886;2023-02-28T03:15:42;103104.81;;;1.60;87.92
76547;BME280;65390;53.014;8.886;2023-02-28T03:18:24;103086.25;;;1.45;87.84
76547;BME280;65390;53.014;8.886;2023-02-28T03:23:36;103108.31;;;1.53;87.63
76547;BME280;65390;53.014;8.886;2023-02-28T03:26:14;103098.56;;;1.46;88.39
76547;BME280;65390;53.014;8.886;2023-02-28T03:28:51;103122.50;;;1.63;88.56
76547;BME280;65390;53.014;8.886;2023-02-28T03:31:26;103085.28;;;1.38;88.09
76547;BME280;65390;53.014;8.886;2023-02-28T03:33:58;103105.66;;;1.51;88.59
76547;BME280;65390;53.014;8.886;2023-02-28T03:36:30;103103.00;;;1.48;88.47
76547;BME280;65390;53.014;8.886;2023-02-28T03:39:04;103079.97;;;1.35;88.59
76547;BME280;65390;53.014;8.886;2023-02-28T03:41:40;103091.41;;;1.33;88.63
76547;BME280;65390;53.014;8.886;2023-02-28T03:44:12;103093.94;;;1.22;88.76
76547;BME280;65390;53.014;8.886;2023-02-28T03:46:51;103103.56;;;1.17;88.66
76547;BME280;65390;53.014;8.886;2023-02-28T03:49:25;103091.22;;;1.11;89.12
76547;BME280;65390;53.014;8.886;2023-02-28T03:51:53;103119.47;;;1.23;89.28
76547;BME280;65390;53.014;8.886;2023-02-28T03:54:29;103087.69;;;1.12;89.03
76547;BME280;65390;53.014;8.886;2023-02-28T03:57:43;103132.84;;;1.40;89.14
76547;BME280;65390;53.014;8.886;2023-02-28T04:00:40;103134.53;;;1.32;89.40
76547;BME280;65390;53.014;8.886;2023-02-28T04:03:08;103131.94;;;1.36;89.25
76547;BME280;65390;53.014;8.886;2023-02-28T04:05:50;103111.66;;;1.32;88.83
76547;BME280;65390;53.014;8.886;2023-02-28T04:08:16;103100.97;;;1.23;89.12
76547;BME280;65390;53.014;8.886;2023-02-28T04:10:45;103124.00;;;1.35;88.54
76547;BME280;65390;53.014;8.886;2023-02-28T04:13:12;103092.19;;;1.24;88.76
76547;BME280;65390;53.014;8.886;2023-02-28T04:15:37;103109.84;;;1.28;88.46
76547;BME280;65390;53.014;8.886;2023-02-28T04:18:03;103110.72;;;1.27;88.27
76547;BME280;65390;53.014;8.886;2023-02-28T04:20:28;103102.75;;;1.23;89.02
76547;BME280;65390;53.014;8.886;2023-02-28T04:22:53;103106.25;;;1.23;89.15
76547;BME280;65390;53.014;8.886;2023-02-28T04:25:19;103127.28;;;1.08;89.75
76547;BME280;65390;53.014;8.886;2023-02-28T04:27:44;103106.78;;;0.87;89.91
76547;BME280;65390;53.014;8.886;2023-02-28T04:30:11;103113.81;;;0.86;90.37
76547;BME280;65390;53.014;8.886;2023-02-28T04:32:36;103112.94;;;0.89;90.67
76547;BME280;65390;53.014;8.886;2023-02-28T04:35:02;103102.47;;;0.95;90.87
76547;BME280;65390;53.014;8.886;2023-02-28T04:37:27;103102.50;;;0.97;90.60
76547;BME280;65390;53.014;8.886;2023-02-28T04:39:54;103106.09;;;1.06;90.73
76547;BME280;65390;53.014;8.886;2023-02-28T04:42:20;103153.00;;;1.27;90.83
76547;BME280;65390;53.014;8.886;2023-02-28T04:44:45;103112.25;;;1.05;90.11
76547;BME280;65390;53.014;8.886;2023-02-28T04:47:10;103112.25;;;1.05;90.73
76547;BME280;65390;53.014;8.886;2023-02-28T04:49:36;103139.66;;;1.16;90.65
76547;BME280;65390;53.014;8.886;2023-02-28T04:52:01;103121.13;;;1.09;91.37
76547;BME280;65390;53.014;8.886;2023-02-28T04:54:27;103092.78;;;0.94;91.28
76547;BME280;65390;53.014;8.886;2023-02-28T04:56:53;103112.22;;;1.04;91.10
76547;BME280;65390;53.014;8.886;2023-02-28T04:59:19;103121.91;;;1.03;91.07
76547;BME280;65390;53.014;8.886;2023-02-28T05:01:47;103111.34;;;1.02;91.12
76547;BME280;65390;53.014;8.886;2023-02-28T05:04:13;103113.09;;;1.03;90.87
76547;BME280;65390;53.014;8.886;2023-02-28T05:06:38;103098.97;;;0.96;90.72
76547;BME280;65390;53.014;8.886;2023-02-28T05:09:04;103144.94;;;1.15;90.45
76547;BME280;65390;53.014;8.886;2023-02-28T05:11:31;103137.69;;;0.97;91.10
76547;BME280;65390;53.014;8.886;2023-02-28T05:14:07;103129.69;;;0.89;91.12
76547;BME280;65390;53.014;8.886;2023-02-28T05:16:34;103121.69;;;0.82;91.40
76547;BME280;65390;53.014;8.886;2023-02-28T05:18:59;103101.31;;;0.72;91.18
76547;BME280;65390;53.014;8.886;2023-02-28T05:23:57;103118.97;;;0.76;91.59
76547;BME280;65390;53.014;8.886;2023-02-28T05:26:23;103117.22;;;0.76;91.75
76547;BME280;65390;53.014;8.886;2023-02-28T05:28:49;103118.16;;;0.81;91.84
76547;BME280;65390;53.014;8.886;2023-02-28T05:31:14;103119.91;;;0.81;91.22
76547;BME280;65390;53.014;8.886;2023-02-28T05:33:40;103130.31;;;0.70;91.67
76547;BME280;65390;53.014;8.886;2023-02-28T05:36:06;103127.66;;;0.67;91.52
76547;BME280;65390;53.014;8.886;2023-02-28T05:38:32;103135.69;;;0.73;91.71
76547;BME280;65390;53.014;8.886;2023-02-28T05:40:57;103125.88;;;0.65;92.08
76547;BME280;65390;53.014;8.886;2023-02-28T05:43:23;103123.16;;;0.58;92.25
76547;BME280;65390;53.014;8.886;2023-02-28T05:45:48;103116.91;;;0.50;91.92
76547;BME280;65390;53.014;8.886;2023-02-28T05:48:14;103145.69;;;0.34;91.99
76547;BME280;65390;53.014;8.886;2023-02-28T05:50:39;103133.91;;;0.09;92.04
76547;BME280;65390;53.014;8.886;2023-02-28T05:53:04;103149.03;;;0.19;91.87
76547;BME280;65390;53.014;8.886;2023-02-28T05:55:30;103158.63;;;0.17;92.02
76547;BME280;65390;53.014;8.886;2023-02-28T05:57:55;103139.22;;;0.10;91.93
76547;BME280;65390;53.014;8.886;2023-02-28T06:00:21;103141.84;;;0.10;92.13
76547;BME280;65390;53.014;8.886;2023-02-28T06:02:47;103156.09;;;0.23;92.22
76547;BME280;65390;53.014;8.886;2023-02-28T06:05:14;103152.63;;;0.25;91.68
76547;BME280;65390;53.014;8.886;2023-02-28T06:07:40;103152.69;;;0.30;91.53
76547;BME280;65390;53.014;8.886;2023-02-28T06:10:06;103150.88;;;0.26;91.54
76547;BME280;65390;53.014;8.886;2023-02-28T06:12:32;103145.56;;;0.23;91.27
76547;BME280;65390;53.014;8.886;2023-02-28T06:14:57;103151.66;;;0.19;91.15
76547;BME280;65390;53.014;8.886;2023-02-28T06:17:22;103132.84;;;-0.04;91.41
76547;BME280;65390;53.014;8.886;2023-02-28T06:19:48;103143.41;;;-0.01;92.17
76547;BME280;65390;53.014;8.886;2023-02-28T06:22:13;103156.72;;;0.07;91.82
76547;BME280;65390;53.014;8.886;2023-02-28T06:24:39;103166.50;;;0.14;92.08
76547;BME280;65390;53.014;8.886;2023-02-28T06:27:04;103152.28;;;0.03;92.36
76547;BME280;65390;53.014;8.886;2023-02-28T06:29:31;103182.28;;;0.12;92.11
76547;BME280;65390;53.014;8.886;2023-02-28T06:31:57;103172.66;;;0.14;92.36
76547;BME280;65390;53.014;8.886;2023-02-28T06:34:25;103172.84;;;0.26;92.14
76547;BME280;65390;53.014;8.886;2023-02-28T06:36:52;103175.47;;;0.25;92.32
76547;BME280;65390;53.014;8.886;2023-02-28T06:39:18;103153.50;;;0.26;92.11
76547;BME280;65390;53.014;8.886;2023-02-28T06:41:43;103167.63;;;0.31;91.68
76547;BME280;65390;53.014;8.886;2023-02-28T06:44:15;103170.41;;;0.39;91.96
76547;BME280;65390;53.014;8.886;2023-02-28T06:46:42;103169.53;;;0.40;91.69
76547;BME280;65390;53.014;8.886;2023-02-28T06:49:09;103190.94;;;0.63;91.24
76547;BME280;65390;53.014;8.886;2023-02-28T06:51:39;103174.16;;;0.56;91.29
76547;BME280;65390;53.014;8.886;2023-02-28T06:54:20;103170.69;;;0.60;91.07
76547;BME280;65390;53.014;8.886;2023-02-28T06:56:48;103195.59;;;0.82;90.64
76547;BME280;65390;53.014;8.886;2023-02-28T06:59:14;103192.06;;;0.83;90.94
76547;BME280;65390;53.014;8.886;2023-02-28T07:01:39;103180.63;;;0.81;90.43
76547;BME280;65390;53.014;8.886;2023-02-28T07:04:06;103170.03;;;0.78;90.08
76547;BME280;65390;53.014;8.886;2023-02-28T07:06:32;103178.06;;;0.88;90.14
76547;BME280;65390;53.014;8.886;2023-02-28T07:08:58;103189.81;;;1.12;90.09
76547;BME280;65390;53.014;8.886;2023-02-28T07:11:25;103184.53;;;1.12;89.47
76547;BME280;65390;53.014;8.886;2023-02-28T07:13:51;103173.81;;;1.00;89.17
76547;BME280;65390;53.014;8.886;2023-02-28T07:16:17;103192.34;;;1.04;88.88
76547;BME280;65390;53.014;8.886;2023-02-28T07:18:43;103191.47;;;1.07;89.03
76547;BME280;65390;53.014;8.886;2023-02-28T07:21:10;103195.09;;;1.15;88.90
76547;BME280;65390;53.014;8.886;2023-02-28T07:23:36;103192.50;;;1.18;88.60
76547;BME280;65390;53.014;8.886;2023-02-28T07:26:03;103185.88;;;0.78;89.12
76547;BME280;65390;53.014;8.886;2023-02-28T07:28:29;103166.59;;;0.86;89.34
76547;BME280;65390;53.014;8.886;2023-02-28T07:30:54;103186.09;;;0.96;89.26
76547;BME280;65390;53.014;8.886;2023-02-28T07:33:20;103183.59;;;1.08;89.72
76547;BME280;65390;53.014;8.886;2023-02-28T07:35:45;103191.00;;;1.43;89.60
76547;BME280;65390;53.014;8.886;2023-02-28T07:38:10;103195.94;;;2.02;89.74
76547;BME280;65390;53.014;8.886;2023-02-28T07:40:37;103185.16;;;3.58;90.81
76547;BME280;65390;53.014;8.886;2023-02-28T07:43:03;103183.56;;;5.73;87.44
76547;BME280;65390;53.014;8.886;2023-02-28T07:45:29;103198.63;;;7.97;82.30
76547;BME280;65390;53.014;8.886;2023-02-28T07:47:55;103190.78;;;9.63;77.05
76547;BME280;65390;53.014;8.886;2023-02-28T07:50:20;103179.63;;;11.13;70.84
76547;BME280;65390;53.014;8.886;2023-02-28T07:52:46;103176.09;;;12.47;67.12
76547;BME280;65390;53.014;8.886;2023-02-28T07:55:12;103187.56;;;13.69;63.75
76547;BME280;65390;53.014;8.886;2023-02-28T07:57:39;103177.81;;;14.49;60.77
76547;BME280;65390;53.014;8.886;2023-02-28T08:00:07;103172.31;;;15.29;58.17
76547;BME280;65390;53.014;8.886;2023-02-28T08:02:34;103151.28;;;15.17;55.43
76547;BME280;65390;53.014;8.886;2023-02-28T08:05:00;103161.09;;;15.55;54.89
76547;BME280;65390;53.014;8.886;2023-02-28T08:07:26;103156.59;;;15.92;54.23
76547;BME280;65390;53.014;8.886;2023-02-28T08:09:51;103161.06;;;15.19;52.46
76547;BME280;65390;53.014;8.886;2023-02-28T08:12:17;103151.03;;;13.16;52.93
76547;BME280;65390;53.014;8.886;2023-02-28T08:14:42;103169.72;;;12.49;56.02
76547;BME280;65390;53.014;8.886;2023-02-28T08:17:09;103185.47;;;13.53;56.33
76547;BME280;65390;53.014;8.886;2023-02-28T08:19:34;103171.38;;;14.72;54.49
76547;BME280;65390;53.014;8.886;2023-02-28T08:22:00;103158.06;;;14.88;52.45
76547;BME280;65390;53.014;8.886;2023-02-28T08:24:25;103189.81;;;15.20;52.86
76547;BME280;65390;53.014;8.886;2023-02-28T08:26:50;103156.09;;;15.66;52.09
76547;BME280;65390;53.014;8.886;2023-02-28T08:29:16;103168.13;;;15.40;51.19
76547;BME280;65390;53.014;8.886;2023-02-28T08:31:42;103173.31;;;16.00;51.34
76547;BME280;65390;53.014;8.886;2023-02-28T08:34:08;103153.19;;;16.23;50.89
76547;BME280;65390;53.014;8.886;2023-02-28T08:36:35;103160.16;;;16.44;50.47
76547;BME280;65390;53.014;8.886;2023-02-28T08:39:01;103165.19;;;16.52;50.14
76547;BME280;65390;53.014;8.886;2023-02-28T08:41:26;103152.78;;;16.13;50.23
76547;BME280;65390;53.014;8.886;2023-02-28T08:43:52;103156.94;;;16.03;50.36
76547;BME280;65390;53.014;8.886;2023-02-28T08:46:19;103170.75;;;15.97;50.78
76547;BME280;65390;53.014;8.886;2023-02-28T08:48:44;103156.66;;;15.90;50.33
76547;BME280;65390;53.014;8.886;2023-02-28T08:51:13;103191.16;;;15.30;49.42
76547;BME280;65390;53.014;8.886;2023-02-28T08:53:39;103149.22;;;14.25;49.61
76547;BME280;65390;53.014;8.886;2023-02-28T08:56:11;103187.34;;;14.36;50.53
76547;BME280;65390;53.014;8.886;2023-02-28T08:58:37;103163.72;;;13.80;52.23
76547;BME280;65390;53.014;8.886;2023-02-28T09:01:32;103170.50;;;13.68;53.33
76547;BME280;65390;53.014;8.886;2023-02-28T09:03:58;103181.56;;;12.44;51.64
76547;BME280;65390;53.014;8.886;2023-02-28T09:06:25;103154.00;;;10.72;53.84
76547;BME280;65390;53.014;8.886;2023-02-28T09:08:51;103174.78;;;8.83;54.96
76547;BME280;65390;53.014;8.886;2023-02-28T09:11:17;103174.44;;;8.55;57.49
76547;BME280;65390;53.014;8.886;2023-02-28T09:13:44;103185.75;;;9.11;58.24
76547;BME280;65390;53.014;8.886;2023-02-28T09:16:12;103176.38;;;8.90;58.26
76547;BME280;65390;53.014;8.886;2023-02-28T09:18:38;103197.06;;;8.82;57.68
76547;BME280;65390;53.014;8.886;2023-02-28T09:21:05;103187.28;;;8.81;57.89
76547;BME280;65390;53.014;8.886;2023-02-28T09:23:31;103177.25;;;8.49;57.77
76547;BME280;65390;53.014;8.886;2023-02-28T09:25:57;103177.53;;;8.34;57.89
76547;BME280;65390;53.014;8.886;2023-02-28T09:28:22;103185.34;;;8.44;58.30
76547;BME280;65390;53.014;8.886;2023-02-28T09:30:50;103167.97;;;8.67;58.33
76547;BME280;65390;53.014;8.886;2023-02-28T09:33:16;103161.16;;;8.51;58.87
76547;BME280;65390;53.014;8.886;2023-02-28T09:35:42;103174.69;;;8.86;58.83
76547;BME280;65390;53.014;8.886;2023-02-28T09:38:08;103175.50;;;7.96;59.14
76547;BME280;65390;53.014;8.886;2023-02-28T09:40:46;103177.25;;;7.98;58.90
76547;BME280;65390;53.014;8.886;2023-02-28T09:43:14;103185.50;;;8.35;58.22
76547;BME280;65390;53.014;8.886;2023-02-28T09:45:42;103166.38;;;8.57;58.35
76547;BME280;65390;53.014;8.886;2023-02-28T09:48:16;103174.34;;;8.60;58.36
76547;BME280;65390;53.014;8.886;2023-02-28T09:50:52;103210.91;;;8.58;57.65
76547;BME280;65390;53.014;8.886;2023-02-28T09:53:32;103180.09;;;7.86;57.81
76547;BME280;65390;53.014;8.886;2023-02-28T09:56:05;103207.34;;;8.08;56.46
76547;BME280;65390;53.014;8.886;2023-02-28T09:58:48;103204.06;;;7.92;55.64
76547;BME280;65390;53.014;8.886;2023-02-28T10:04:48;103210.53;;;8.30;54.59
76547;BME280;65390;53.014;8.886;2023-02-28T10:10:24;103186.59;;;7.70;54.00
76547;BME280;65390;53.014;8.886;2023-02-28T10:12:53;103190.09;;;7.75;54.37
76547;BME280;65390;53.014;8.886;2023-02-28T10:15:22;103166.69;;;7.34;54.87
76547;BME280;65390;53.014;8.886;2023-02-28T10:17:53;103197.53;;;7.53;55.62
76547;BME280;65390;53.014;8.886;2023-02-28T10:20:21;103194.56;;;7.74;55.74
76547;BME280;65390;53.014;8.886;2023-02-28T10:22:59;103200.59;;;7.85;54.86
76547;BME280;65390;53.014;8.886;2023-02-28T10:25:32;103207.91;;;7.74;55.17
76547;BME280;65390;53.014;8.886;2023-02-28T10:28:12;103193.03;;;7.58;55.42
76547;BME280;65390;53.014;8.886;2023-02-28T10:30:39;103219.59;;;7.66;56.16
76547;BME280;65390;53.014;8.886;2023-02-28T10:33:08;103168.63;;;7.24;56.04
76547;BME280;65390;53.014;8.886;2023-02-28T10:35:38;103207.34;;;7.51;56.31
76547;BME280;65390;53.014;8.886;2023-02-28T10:38:14;103186.16;;;7.42;56.59
76547;BME280;65390;53.014;8.886;2023-02-28T10:40:41;103197.00;;;7.28;56.12
76547;BME280;65390;53.014;8.886;2023-02-28T10:45:38;103169.81;;;7.00;56.55
76547;BME280;65390;53.014;8.886;2023-02-28T10:48:04;103220.53;;;6.95;56.12
76547;BME280;65390;53.014;8.886;2023-02-28T10:58:30;103173.56;;;6.88;57.10
76547;BME280;65390;53.014;8.886;2023-02-28T11:00:56;103183.25;;;6.94;56.68
76547;BME280;65390;53.014;8.886;2023-02-28T11:03:40;103197.81;;;7.33;57.00
76547;BME280;65390;53.014;8.886;2023-02-28T11:06:08;103186.50;;;7.19;56.89
76547;BME280;65390;53.014;8.886;2023-02-28T11:08:54;103200.72;;;7.19;57.02
76547;BME280;65390;53.014;8.886;2023-02-28T11:11:21;103176.88;;;7.06;56.85
76547;BME280;65390;53.014;8.886;2023-02-28T11:13:51;103162.41;;;7.23;56.80
76547;BME280;65390;53.014;8.886;2023-02-28T11:16:17;103176.06;;;7.01;55.68
76547;BME280;65390;53.014;8.886;2023-02-28T11:18:52;103204.19;;;7.24;57.44
76547;BME280;65390;53.014;8.886;2023-02-28T11:21:22;103181.00;;;7.28;56.92
76547;BME280;65390;53.014;8.886;2023-02-28T11:23:52;103174.59;;;7.41;56.48
76547;BME280;65390;53.014;8.886;2023-02-28T11:26:39;103164.72;;;7.46;57.04
76547;BME280;65390;53.014;8.886;2023-02-28T11:29:12;103135.50;;;7.40;55.62
76547;BME280;65390;53.014;8.886;2023-02-28T11:31:41;103158.00;;;7.22;55.70
76547;BME280;65390;53.014;8.886;2023-02-28T11:34:24;103159.28;;;6.92;55.88
76547;BME280;65390;53.014;8.886;2023-02-28T11:36:51;103152.91;;;7.04;57.85
76547;BME280;65390;53.014;8.886;2023-02-28T11:39:18;103137.53;;;7.23;56.52
76547;BME280;65390;53.014;8.886;2023-02-28T11:53:00;103165.31;;;7.65;54.81
76547;BME280;65390;53.014;8.886;2023-02-28T12:03:55;103169.72;;;8.20;55.10
76547;BME280;65390;53.014;8.886;2023-02-28T12:14:52;103149.00;;;7.83;55.08
76547;BME280;65390;53.014;8.886;2023-02-28T12:20:46;103149.81;;;7.90;55.91
76547;BME280;65390;53.014;8.886;2023-02-28T12:29:32;103071.22;;;8.03;55.20
76547;BME280;65390;53.014;8.886;2023-02-28T12:32:21;103107.19;;;8.32;55.87
76547;BME280;65390;53.014;8.886;2023-02-28T12:34:58;103126.59;;;8.41;55.58
76547;BME280;65390;53.014;8.886;2023-02-28T12:40:54;103100.44;;;8.12;54.99
76547;BME280;65390;53.014;8.886;2023-02-28T12:43:25;103084.22;;;8.22;55.51
76547;BME280;65390;53.014;8.886;2023-02-28T12:45:59;103090.16;;;8.37;54.88
76547;BME280;65390;53.014;8.886;2023-02-28T12:48:31;103098.19;;;8.37;54.92
76547;BME280;65390;53.014;8.886;2023-02-28T12:50:59;103062.69;;;8.31;55.02
76547;BME280;65390;53.014;8.886;2023-02-28T12:53:31;103095.41;;;8.42;54.67
76547;BME280;65390;53.014;8.886;2023-02-28T12:58:49;103090.28;;;8.31;54.73
76547;BME280;65390;53.014;8.886;2023-02-28T13:04:15;103062.75;;;8.28;54.92
76547;BME280;65390;53.014;8.886;2023-02-28T13:07:05;103095.25;;;8.51;54.68
76547;BME280;65390;53.014;8.886;2023-02-28T13:09:33;103043.06;;;8.32;53.96
76547;BME280;65390;53.014;8.886;2023-02-28T13:11:59;103075.84;;;8.41;54.16
76547;BME280;65390;53.014;8.886;2023-02-28T13:14:37;103067.34;;;8.19;54.45
76547;BME280;65390;53.014;8.886;2023-02-28T13:17:11;103053.69;;;7.88;55.06
76547;BME280;65390;53.014;8.886;2023-02-28T13:19:57;103067.47;;;8.13;56.97
76547;BME280;65390;53.014;8.886;2023-02-28T13:22:42;103032.81;;;8.10;54.47
76547;BME280;65390;53.014;8.886;2023-02-28T13:27:53;103059.91;;;8.37;54.41
76547;BME280;65390;53.014;8.886;2023-02-28T13:35:45;103030.38;;;7.98;54.77
76547;BME280;65390;53.014;8.886;2023-02-28T13:38:41;103070.50;;;7.95;54.55
76547;BME280;65390;53.014;8.886;2023-02-28T13:44:14;103038.00;;;7.72;55.80
76547;BME280;65390;53.014;8.886;2023-02-28T13:52:02;103027.44;;;8.12;54.41
76547;BME280;65390;53.014;8.886;2023-02-28T14:05:18;103015.25;;;7.99;53.13
76547;BME280;65390;53.014;8.886;2023-02-28T14:07:54;103016.66;;;7.70;53.85
76547;BME280;65390;53.014;8.886;2023-02-28T14:10:27;103037.19;;;7.67;53.14
76547;BME280;65390;53.014;8.886;2023-02-28T14:12:58;103022.22;;;7.60;53.36
76547;BME280;65390;53.014;8.886;2023-02-28T14:15:47;103017.63;;;7.66;53.93
76547;BME280;65390;53.014;8.886;2023-02-28T14:18:29;102992.97;;;7.55;53.64
76547;BME280;65390;53.014;8.886;2023-02-28T14:21:29;103047.78;;;7.71;53.47
76547;BME280;65390;53.014;8.886;2023-02-28T14:37:37;103024.91;;;7.58;54.09
76547;BME280;65390;53.014;8.886;2023-02-28T14:40:13;103018.47;;;7.70;53.51
76547;BME280;65390;53.014;8.886;2023-02-28T14:42:47;103011.44;;;7.66;53.61
76547;BME280;65390;53.014;8.886;2023-02-28T14:45:20;103038.72;;;7.81;53.03
76547;BME280;65390;53.014;8.886;2023-02-28T14:47:47;103011.69;;;7.50;53.66
76547;BME280;65390;53.014;8.886;2023-02-28T14:50:22;103017.13;;;7.46;54.60
76547;BME280;65390;53.014;8.886;2023-02-28T14:52:52;103015.75;;;7.22;53.64
76547;BME280;65390;53.014;8.886;2023-02-28T14:55:29;103042.16;;;7.39;53.71
76547;BME280;65390;53.014;8.886;2023-02-28T14:57:57;103044.84;;;7.36;53.34
76547;BME280;65390;53.014;8.886;2023-02-28T15:00:26;103042.81;;;7.51;54.10
76547;BME280;65390;53.014;8.886;2023-02-28T15:02:53;103027.94;;;7.38;54.20
76547;BME280;65390;53.014;8.886;2023-02-28T15:05:37;103053.56;;;7.47;53.73
76547;BME280;65390;53.014;8.886;2023-02-28T15:10:35;103013.28;;;7.10;53.67
76547;BME280;65390;53.014;8.886;2023-02-28T15:13:05;103023.22;;;7.02;54.09
76547;BME280;65390;53.014;8.886;2023-02-28T15:15:55;103025.78;;;7.08;54.79
76547;BME280;65390;53.014;8.886;2023-02-28T15:18:52;103029.16;;;7.19;54.51
76547;BME280;65390;53.014;8.886;2023-02-28T15:21:35;103052.38;;;7.11;53.91
76547;BME280;65390;53.014;8.886;2023-02-28T15:24:10;103038.06;;;7.16;54.85
76547;BME280;65390;53.014;8.886;2023-02-28T15:26:42;103027.69;;;6.98;54.91